ROMMA est une association bénévole à but non lucratif. Votre soutien est indispensable : ADHERER à ROMMA ou FAIRE un DON

Nice - (06, Alpes-Maritimes)

Côte-d'Azur (190 m)   Longitude: 07° 14' E   Latitude: 43° 43' N Station partenaire n°136
 

Détail journalier du     <<     >>

Température Precipitation Humidité Pression Vent Dir Rafale Dir. rafale Ensol.
Heure (°C) (mm) (%) (hPa) (km/h) (km/h) (min)
01:00 16.1054101010NNO32NO0
02:00 15.8055101110NNO40NNO0
03:00 16.0051101214NNO35NNO0
04:00 15.105410138NNO31NNO0
05:00 13.905910142ESE13NO0
06:00 13.906110147NO21NO0
07:00 14.205810156NNO21NNO0
08:00 14.705610158NNO24NNO0
09:00 15.405310168NNO21NNO0
10:00 17.205110175N16NNO20
11:00 19.205410174NNE13NNE60
12:00 20.306410174SO13SO60
13:00 20.606210178SE23SE60
14:00 19.4068101710SSE23SSE60
15:00 19.606410179SE19SSE60
16:00 19.606310178SE19SE60
17:00 18.806410176SSE15SSE60
18:00 17.606710174SSE13SSE0
19:00 15.9075101706NE0
20:00 15.607510171NNE10NE0
21:00 15.1079101805NE0
22:00 14.9080101800---0
23:00 14.4082101900---0
minuit 15.107610193NNO13NNO0

Graphique du 16-10-2019

 

Serveur OMMA